MDST/STI METAR and TAF weather

Enter ICAO airport designator
Station Type Date Time Source
MDST METAR 2022/11/30 10:00 UTC NOAA

MDST 301000Z 00000KT 5000 BR BKN014 20/19 Q1014


Station Type Date Time Source
MDST Decoded METAR 2022/11/30 10:00 UTC NOAA

Santiago, Dominican Republic (MDST) 19-27N 070-42W
Nov 30, 2022 - 05:00 AM EST / 2022.11.30 1000 UTC
Wind: Calm:0
Visibility: 3 mile(s):0
Sky conditions: mostly cloudy
Weather: mist
Temperature: 68 F (20 C)
Dew Point: 66 F (19 C)
Relative Humidity: 93%
Pressure (altimeter): 29.94 in. Hg (1014 hPa)
ob: MDST 301000Z 00000KT 5000 BR BKN014 20/19 Q1014
cycle: 10

Station Type Date Time Source
MDST TAF 2022/11/30 12:06 UTC NOAA

TAF MDST 301000Z 3012/0112 00000KT 9999 SCT016
TEMPO 3010/3013 4000 BR BKN016 SCT070
BECMG 3011/3013 11006KT

Example: see airport list